sensor_id;sensor_type;location;lat;lon;timestamp;P1;durP1;ratioP1;P2;durP2;ratioP2
24663;SDS011;12791;50.992;13.788;2022-12-07T04:04:43;14.05;;;10.13;;
24663;SDS011;12791;50.992;13.788;2022-12-07T04:07:10;12.05;;;9.57;;
24663;SDS011;12791;50.992;13.788;2022-12-07T04:09:37;12.15;;;8.98;;
24663;SDS011;12791;50.992;13.788;2022-12-07T04:12:04;13.55;;;10.02;;
24663;SDS011;12791;50.992;13.788;2022-12-07T04:14:31;11.52;;;9.20;;
24663;SDS011;12791;50.992;13.788;2022-12-07T04:16:58;13.80;;;9.95;;
24663;SDS011;12791;50.992;13.788;2022-12-07T04:19:25;11.25;;;8.95;;
24663;SDS011;12791;50.992;13.788;2022-12-07T04:21:55;12.68;;;9.35;;
24663;SDS011;12791;50.992;13.788;2022-12-07T04:24:22;12.45;;;8.75;;
24663;SDS011;12791;50.992;13.788;2022-12-07T04:26:49;12.55;;;9.20;;
24663;SDS011;12791;50.992;13.788;2022-12-07T04:29:16;12.10;;;8.90;;
24663;SDS011;12791;50.992;13.788;2022-12-07T04:31:44;12.25;;;9.50;;
24663;SDS011;12791;50.992;13.788;2022-12-07T04:34:11;11.38;;;8.32;;
24663;SDS011;12791;50.992;13.788;2022-12-07T04:36:39;11.77;;;8.77;;
24663;SDS011;12791;50.992;13.788;2022-12-07T04:39:07;11.55;;;8.70;;
24663;SDS011;12791;50.992;13.788;2022-12-07T04:41:45;12.82;;;9.15;;
24663;SDS011;12791;50.992;13.788;2022-12-07T04:44:12;11.77;;;8.65;;
24663;SDS011;12791;50.992;13.788;2022-12-07T04:46:40;12.95;;;9.25;;
24663;SDS011;12791;50.992;13.788;2022-12-07T04:49:07;13.25;;;9.70;;
24663;SDS011;12791;50.992;13.788;2022-12-07T04:51:34;12.50;;;9.40;;
24663;SDS011;12791;50.992;13.788;2022-12-07T04:54:01;12.82;;;9.32;;
24663;SDS011;12791;50.992;13.788;2022-12-07T04:56:29;13.30;;;9.52;;
24663;SDS011;12791;50.992;13.788;2022-12-07T04:58:56;14.77;;;9.90;;
24663;SDS011;12791;50.992;13.788;2022-12-07T05:01:23;12.70;;;9.70;;
24663;SDS011;12791;50.992;13.788;2022-12-07T05:03:50;10.85;;;8.65;;
24663;SDS011;12791;50.992;13.788;2022-12-07T05:06:17;11.75;;;8.75;;
24663;SDS011;12791;50.992;13.788;2022-12-07T05:08:44;12.85;;;8.65;;
24663;SDS011;12791;50.992;13.788;2022-12-07T05:11:12;12.80;;;9.13;;
24663;SDS011;12791;50.992;13.788;2022-12-07T05:14:01;10.90;;;8.45;;
24663;SDS011;12791;50.992;13.788;2022-12-07T05:16:29;13.40;;;8.40;;
24663;SDS011;12791;50.992;13.788;2022-12-07T05:18:56;12.88;;;8.43;;
24663;SDS011;12791;50.992;13.788;2022-12-07T05:21:23;9.00;;;7.47;;
24663;SDS011;12791;50.992;13.788;2022-12-07T05:23:50;11.02;;;7.80;;
24663;SDS011;12791;50.992;13.788;2022-12-07T05:26:17;10.35;;;7.18;;
24663;SDS011;12791;50.992;13.788;2022-12-07T05:28:44;10.93;;;7.72;;
24663;SDS011;12791;50.992;13.788;2022-12-07T05:31:12;10.50;;;7.40;;
24663;SDS011;12791;50.992;13.788;2022-12-07T05:33:39;11.27;;;6.82;;
24663;SDS011;12791;50.992;13.788;2022-12-07T05:36:06;9.82;;;6.65;;
24663;SDS011;12791;50.992;13.788;2022-12-07T05:38:33;7.65;;;6.18;;
24663;SDS011;12791;50.992;13.788;2022-12-07T05:41:00;7.43;;;6.15;;
24663;SDS011;12791;50.992;13.788;2022-12-07T05:43:28;8.68;;;6.18;;
24663;SDS011;12791;50.992;13.788;2022-12-07T05:45:54;7.22;;;5.80;;
24663;SDS011;12791;50.992;13.788;2022-12-07T05:48:23;7.30;;;6.18;;
24663;SDS011;12791;50.992;13.788;2022-12-07T05:50:51;8.25;;;6.03;;
24663;SDS011;12791;50.992;13.788;2022-12-07T05:53:18;6.88;;;5.32;;
24663;SDS011;12791;50.992;13.788;2022-12-07T05:55:45;6.38;;;5.32;;
24663;SDS011;12791;50.992;13.788;2022-12-07T05:58:12;7.72;;;5.97;;
24663;SDS011;12791;50.992;13.788;2022-12-07T06:00:56;7.25;;;5.60;;
24663;SDS011;12791;50.992;13.788;2022-12-07T06:03:24;8.15;;;5.45;;
24663;SDS011;12791;50.992;13.788;2022-12-07T06:05:51;6.65;;;5.28;;
24663;SDS011;12791;50.992;13.788;2022-12-07T06:08:18;7.38;;;5.00;;
24663;SDS011;12791;50.992;13.788;2022-12-07T06:10:46;6.40;;;4.80;;
24663;SDS011;12791;50.992;13.788;2022-12-07T06:13:34;6.72;;;4.68;;
24663;SDS011;12791;50.992;13.788;2022-12-07T06:15:59;6.97;;;4.50;;
24663;SDS011;12791;50.992;13.788;2022-12-07T06:18:28;7.25;;;5.00;;
24663;SDS011;12791;50.992;13.788;2022-12-07T06:20:54;5.72;;;4.43;;
24663;SDS011;12791;50.992;13.788;2022-12-07T06:23:21;6.28;;;4.38;;
24663;SDS011;12791;50.992;13.788;2022-12-07T06:25:48;6.72;;;4.75;;
24663;SDS011;12791;50.992;13.788;2022-12-07T06:28:15;5.88;;;4.32;;
24663;SDS011;12791;50.992;13.788;2022-12-07T06:30:41;6.22;;;4.40;;
24663;SDS011;12791;50.992;13.788;2022-12-07T06:33:08;6.43;;;4.35;;
24663;SDS011;12791;50.992;13.788;2022-12-07T06:35:36;4.78;;;4.28;;
24663;SDS011;12791;50.992;13.788;2022-12-07T06:38:03;5.72;;;4.40;;
24663;SDS011;12791;50.992;13.788;2022-12-07T06:40:30;6.05;;;4.68;;
24663;SDS011;12791;50.992;13.788;2022-12-07T06:42:56;6.72;;;4.50;;
24663;SDS011;12791;50.992;13.788;2022-12-07T06:45:23;5.32;;;4.55;;
24663;SDS011;12791;50.992;13.788;2022-12-07T06:47:50;5.65;;;4.97;;
24663;SDS011;12791;50.992;13.788;2022-12-07T06:50:17;5.63;;;4.18;;
24663;SDS011;12791;50.992;13.788;2022-12-07T06:52:45;6.38;;;4.65;;
24663;SDS011;12791;50.992;13.788;2022-12-07T06:55:11;4.75;;;4.30;;
24663;SDS011;12791;50.992;13.788;2022-12-07T06:57:38;5.32;;;4.78;;
24663;SDS011;12791;50.992;13.788;2022-12-07T07:00:05;5.65;;;4.20;;
24663;SDS011;12791;50.992;13.788;2022-12-07T07:02:33;6.03;;;4.38;;
24663;SDS011;12791;50.992;13.788;2022-12-07T07:05:00;5.07;;;4.45;;
24663;SDS011;12791;50.992;13.788;2022-12-07T07:07:27;5.82;;;4.55;;
24663;SDS011;12791;50.992;13.788;2022-12-07T07:09:55;5.28;;;3.92;;
24663;SDS011;12791;50.992;13.788;2022-12-07T07:12:22;6.18;;;3.97;;
24663;SDS011;12791;50.992;13.788;2022-12-07T07:14:48;4.85;;;4.15;;
24663;SDS011;12791;50.992;13.788;2022-12-07T07:17:15;5.75;;;4.20;;
24663;SDS011;12791;50.992;13.788;2022-12-07T07:19:42;5.20;;;4.70;;
24663;SDS011;12791;50.992;13.788;2022-12-07T07:22:09;5.20;;;4.70;;
24663;SDS011;12791;50.992;13.788;2022-12-07T07:24:35;5.30;;;4.70;;
24663;SDS011;12791;50.992;13.788;2022-12-07T07:27:03;5.63;;;4.55;;
24663;SDS011;12791;50.992;13.788;2022-12-07T07:29:30;4.75;;;4.25;;
24663;SDS011;12791;50.992;13.788;2022-12-07T07:31:57;4.70;;;3.88;;
24663;SDS011;12791;50.992;13.788;2022-12-07T07:34:24;4.47;;;4.05;;
24663;SDS011;12791;50.992;13.788;2022-12-07T07:36:50;4.38;;;3.97;;
24663;SDS011;12791;50.992;13.788;2022-12-07T07:39:17;4.63;;;4.13;;
24663;SDS011;12791;50.992;13.788;2022-12-07T07:41:44;4.10;;;3.25;;
24663;SDS011;12791;50.992;13.788;2022-12-07T07:44:12;7.18;;;4.32;;
24663;SDS011;12791;50.992;13.788;2022-12-07T07:46:39;3.50;;;3.20;;
24663;SDS011;12791;50.992;13.788;2022-12-07T07:49:06;3.42;;;3.13;;
24663;SDS011;12791;50.992;13.788;2022-12-07T07:51:33;3.70;;;3.40;;
24663;SDS011;12791;50.992;13.788;2022-12-07T07:54:00;5.28;;;3.05;;
24663;SDS011;12791;50.992;13.788;2022-12-07T07:56:26;3.20;;;2.97;;
24663;SDS011;12791;50.992;13.788;2022-12-07T07:58:53;4.40;;;3.90;;
24663;SDS011;12791;50.992;13.788;2022-12-07T08:01:22;7.22;;;4.70;;
24663;SDS011;12791;50.992;13.788;2022-12-07T08:03:48;4.07;;;3.72;;
24663;SDS011;12791;50.992;13.788;2022-12-07T08:06:15;5.25;;;4.32;;
24663;SDS011;12791;50.992;13.788;2022-12-07T08:08:42;7.32;;;4.65;;
24663;SDS011;12791;50.992;13.788;2022-12-07T08:11:09;6.65;;;5.78;;
24663;SDS011;12791;50.992;13.788;2022-12-07T08:13:36;6.72;;;5.80;;
24663;SDS011;12791;50.992;13.788;2022-12-07T08:16:03;7.28;;;5.97;;
24663;SDS011;12791;50.992;13.788;2022-12-07T08:18:32;7.45;;;6.38;;
24663;SDS011;12791;50.992;13.788;2022-12-07T08:21:01;8.88;;;6.88;;
24663;SDS011;12791;50.992;13.788;2022-12-07T08:23:29;9.88;;;6.90;;
24663;SDS011;12791;50.992;13.788;2022-12-07T08:25:59;8.10;;;6.95;;
24663;SDS011;12791;50.992;13.788;2022-12-07T08:28:27;7.68;;;6.72;;
24663;SDS011;12791;50.992;13.788;2022-12-07T08:30:58;9.48;;;7.35;;
24663;SDS011;12791;50.992;13.788;2022-12-07T08:33:25;8.55;;;6.82;;
24663;SDS011;12791;50.992;13.788;2022-12-07T08:35:53;8.15;;;7.35;;
24663;SDS011;12791;50.992;13.788;2022-12-07T08:38:20;8.77;;;6.93;;
24663;SDS011;12791;50.992;13.788;2022-12-07T08:40:52;9.02;;;7.05;;
24663;SDS011;12791;50.992;13.788;2022-12-07T08:43:20;9.57;;;7.28;;
24663;SDS011;12791;50.992;13.788;2022-12-07T08:45:47;8.02;;;6.45;;
24663;SDS011;12791;50.992;13.788;2022-12-07T08:48:16;9.75;;;7.55;;
24663;SDS011;12791;50.992;13.788;2022-12-07T08:50:47;9.10;;;7.38;;
24663;SDS011;12791;50.992;13.788;2022-12-07T08:53:15;9.80;;;7.75;;
24663;SDS011;12791;50.992;13.788;2022-12-07T08:55:43;9.13;;;6.50;;
24663;SDS011;12791;50.992;13.788;2022-12-07T08:58:10;9.15;;;7.30;;
24663;SDS011;12791;50.992;13.788;2022-12-07T09:00:37;8.45;;;7.00;;
24663;SDS011;12791;50.992;13.788;2022-12-07T09:03:04;8.68;;;6.75;;
24663;SDS011;12791;50.992;13.788;2022-12-07T09:05:31;9.52;;;6.95;;
24663;SDS011;12791;50.992;13.788;2022-12-07T09:07:59;8.90;;;6.80;;
24663;SDS011;12791;50.992;13.788;2022-12-07T09:10:28;9.93;;;7.30;;
24663;SDS011;12791;50.992;13.788;2022-12-07T09:12:55;10.50;;;7.47;;
24663;SDS011;12791;50.992;13.788;2022-12-07T09:15:25;7.47;;;6.65;;
24663;SDS011;12791;50.992;13.788;2022-12-07T09:17:52;8.48;;;7.00;;
24663;SDS011;12791;50.992;13.788;2022-12-07T09:20:19;11.07;;;7.53;;
24663;SDS011;12791;50.992;13.788;2022-12-07T09:22:46;8.27;;;7.00;;
24663;SDS011;12791;50.992;13.788;2022-12-07T09:25:13;8.25;;;6.55;;
24663;SDS011;12791;50.992;13.788;2022-12-07T09:27:41;6.72;;;5.85;;
24663;SDS011;12791;50.992;13.788;2022-12-07T09:30:08;9.13;;;6.90;;
24663;SDS011;12791;50.992;13.788;2022-12-07T09:32:35;9.15;;;6.45;;
24663;SDS011;12791;50.992;13.788;2022-12-07T09:35:02;7.55;;;6.18;;
24663;SDS011;12791;50.992;13.788;2022-12-07T09:37:28;7.30;;;5.35;;
24663;SDS011;12791;50.992;13.788;2022-12-07T09:39:56;6.68;;;5.28;;
24663;SDS011;12791;50.992;13.788;2022-12-07T09:42:26;8.50;;;5.85;;
24663;SDS011;12791;50.992;13.788;2022-12-07T09:44:56;10.15;;;6.10;;
24663;SDS011;12791;50.992;13.788;2022-12-07T09:47:24;12.27;;;6.13;;
24663;SDS011;12791;50.992;13.788;2022-12-07T09:49:52;7.90;;;5.43;;
24663;SDS011;12791;50.992;13.788;2022-12-07T09:52:25;10.10;;;6.05;;
24663;SDS011;12791;50.992;13.788;2022-12-07T09:54:54;7.63;;;5.68;;
24663;SDS011;12791;50.992;13.788;2022-12-07T09:57:23;6.78;;;5.53;;
24663;SDS011;12791;50.992;13.788;2022-12-07T09:59:54;7.88;;;5.38;;
24663;SDS011;12791;50.992;13.788;2022-12-07T10:02:30;8.60;;;5.68;;
24663;SDS011;12791;50.992;13.788;2022-12-07T10:05:01;7.68;;;5.65;;
24663;SDS011;12791;50.992;13.788;2022-12-07T10:07:31;8.80;;;5.22;;
24663;SDS011;12791;50.992;13.788;2022-12-07T10:09:57;6.95;;;4.82;;
24663;SDS011;12791;50.992;13.788;2022-12-07T10:12:24;8.50;;;5.05;;
24663;SDS011;12791;50.992;13.788;2022-12-07T10:14:54;7.07;;;5.25;;
24663;SDS011;12791;50.992;13.788;2022-12-07T10:17:29;9.35;;;5.55;;
24663;SDS011;12791;50.992;13.788;2022-12-07T10:20:15;8.88;;;5.35;;
24663;SDS011;12791;50.992;13.788;2022-12-07T10:22:58;9.73;;;5.53;;
24663;SDS011;12791;50.992;13.788;2022-12-07T10:25:28;11.27;;;4.88;;
24663;SDS011;12791;50.992;13.788;2022-12-07T10:28:02;6.88;;;5.40;;
24663;SDS011;12791;50.992;13.788;2022-12-07T10:30:46;9.10;;;5.22;;
24663;SDS011;12791;50.992;13.788;2022-12-07T10:33:29;9.00;;;5.72;;
24663;SDS011;12791;50.992;13.788;2022-12-07T10:35:57;9.95;;;5.38;;
24663;SDS011;12791;50.992;13.788;2022-12-07T10:38:25;8.15;;;5.43;;
24663;SDS011;12791;50.992;13.788;2022-12-07T10:41:02;12.15;;;5.35;;
24663;SDS011;12791;50.992;13.788;2022-12-07T10:43:30;7.57;;;4.95;;
24663;SDS011;12791;50.992;13.788;2022-12-07T10:48:55;8.68;;;5.20;;
24663;SDS011;12791;50.992;13.788;2022-12-07T10:51:32;7.53;;;4.57;;
24663;SDS011;12791;50.992;13.788;2022-12-07T10:54:09;9.27;;;5.35;;
24663;SDS011;12791;50.992;13.788;2022-12-07T10:56:50;7.43;;;4.82;;
24663;SDS011;12791;50.992;13.788;2022-12-07T10:59:34;7.05;;;4.90;;
24663;SDS011;12791;50.992;13.788;2022-12-07T11:02:17;7.90;;;5.00;;
24663;SDS011;12791;50.992;13.788;2022-12-07T11:05:06;8.27;;;4.72;;
24663;SDS011;12791;50.992;13.788;2022-12-07T11:07:42;8.10;;;4.45;;
24663;SDS011;12791;50.992;13.788;2022-12-07T11:10:18;8.48;;;5.18;;
24663;SDS011;12791;50.992;13.788;2022-12-07T11:12:56;5.85;;;4.53;;
24663;SDS011;12791;50.992;13.788;2022-12-07T11:15:41;7.13;;;4.32;;
24663;SDS011;12791;50.992;13.788;2022-12-07T11:18:21;9.65;;;4.80;;
24663;SDS011;12791;50.992;13.788;2022-12-07T11:20:55;7.07;;;5.07;;
24663;SDS011;12791;50.992;13.788;2022-12-07T11:23:46;10.15;;;5.28;;
24663;SDS011;12791;50.992;13.788;2022-12-07T11:26:23;8.70;;;5.70;;
24663;SDS011;12791;50.992;13.788;2022-12-07T11:31:52;7.03;;;4.82;;
24663;SDS011;12791;50.992;13.788;2022-12-07T11:34:26;6.97;;;4.82;;
24663;SDS011;12791;50.992;13.788;2022-12-07T11:37:00;7.22;;;4.47;;
24663;SDS011;12791;50.992;13.788;2022-12-07T11:39:30;7.68;;;4.25;;
24663;SDS011;12791;50.992;13.788;2022-12-07T11:42:03;6.75;;;4.88;;
24663;SDS011;12791;50.992;13.788;2022-12-07T11:44:33;6.40;;;4.93;;
24663;SDS011;12791;50.992;13.788;2022-12-07T11:47:07;6.75;;;5.47;;
24663;SDS011;12791;50.992;13.788;2022-12-07T11:49:40;9.73;;;6.35;;
24663;SDS011;12791;50.992;13.788;2022-12-07T11:52:12;9.95;;;4.70;;
24663;SDS011;12791;50.992;13.788;2022-12-07T11:54:45;9.93;;;5.10;;
24663;SDS011;12791;50.992;13.788;2022-12-07T11:57:16;10.63;;;5.43;;
24663;SDS011;12791;50.992;13.788;2022-12-07T11:59:47;7.53;;;5.65;;
24663;SDS011;12791;50.992;13.788;2022-12-07T12:02:18;6.80;;;5.15;;
24663;SDS011;12791;50.992;13.788;2022-12-07T12:04:53;10.55;;;5.72;;
24663;SDS011;12791;50.992;13.788;2022-12-07T12:07:25;9.07;;;5.60;;
24663;SDS011;12791;50.992;13.788;2022-12-07T12:09:53;9.13;;;6.50;;
24663;SDS011;12791;50.992;13.788;2022-12-07T12:15:21;11.27;;;6.63;;
24663;SDS011;12791;50.992;13.788;2022-12-07T12:18:08;10.00;;;5.72;;
24663;SDS011;12791;50.992;13.788;2022-12-07T12:20:58;10.13;;;5.32;;
24663;SDS011;12791;50.992;13.788;2022-12-07T12:23:34;7.85;;;5.80;;
24663;SDS011;12791;50.992;13.788;2022-12-07T12:26:05;10.75;;;6.00;;
24663;SDS011;12791;50.992;13.788;2022-12-07T12:28:35;6.47;;;5.05;;
24663;SDS011;12791;50.992;13.788;2022-12-07T12:31:07;12.38;;;5.95;;
24663;SDS011;12791;50.992;13.788;2022-12-07T12:33:38;8.27;;;5.82;;
24663;SDS011;12791;50.992;13.788;2022-12-07T12:36:18;10.20;;;5.78;;
24663;SDS011;12791;50.992;13.788;2022-12-07T12:39:07;9.45;;;5.63;;
24663;SDS011;12791;50.992;13.788;2022-12-07T12:41:51;7.97;;;5.93;;
24663;SDS011;12791;50.992;13.788;2022-12-07T12:44:40;6.93;;;5.18;;
24663;SDS011;12791;50.992;13.788;2022-12-07T12:47:41;5.70;;;4.63;;
24663;SDS011;12791;50.992;13.788;2022-12-07T12:50:18;5.07;;;4.40;;
24663;SDS011;12791;50.992;13.788;2022-12-07T12:58:42;5.82;;;3.88;;
24663;SDS011;12791;50.992;13.788;2022-12-07T13:07:03;3.40;;;3.05;;
24663;SDS011;12791;50.992;13.788;2022-12-07T13:09:32;3.75;;;3.10;;
24663;SDS011;12791;50.992;13.788;2022-12-07T13:12:02;7.47;;;4.10;;
24663;SDS011;12791;50.992;13.788;2022-12-07T13:14:42;5.43;;;3.97;;
24663;SDS011;12791;50.992;13.788;2022-12-07T13:20:47;4.97;;;3.92;;
24663;SDS011;12791;50.992;13.788;2022-12-07T13:23:22;7.65;;;4.70;;
24663;SDS011;12791;50.992;13.788;2022-12-07T13:26:01;9.20;;;5.68;;
24663;SDS011;12791;50.992;13.788;2022-12-07T13:28:36;8.18;;;4.68;;
24663;SDS011;12791;50.992;13.788;2022-12-07T13:31:13;7.38;;;5.00;;
24663;SDS011;12791;50.992;13.788;2022-12-07T13:33:45;6.25;;;5.03;;
24663;SDS011;12791;50.992;13.788;2022-12-07T13:36:16;9.20;;;5.63;;
24663;SDS011;12791;50.992;13.788;2022-12-07T13:38:50;9.15;;;5.20;;
24663;SDS011;12791;50.992;13.788;2022-12-07T13:41:21;7.43;;;4.85;;
24663;SDS011;12791;50.992;13.788;2022-12-07T13:43:50;8.02;;;4.55;;
24663;SDS011;12791;50.992;13.788;2022-12-07T13:46:20;6.38;;;4.70;;
24663;SDS011;12791;50.992;13.788;2022-12-07T13:48:53;13.05;;;6.93;;
24663;SDS011;12791;50.992;13.788;2022-12-07T13:51:21;11.43;;;7.22;;
24663;SDS011;12791;50.992;13.788;2022-12-07T13:53:51;8.40;;;6.10;;
24663;SDS011;12791;50.992;13.788;2022-12-07T13:56:25;10.38;;;7.05;;
24663;SDS011;12791;50.992;13.788;2022-12-07T13:58:54;10.13;;;5.85;;
24663;SDS011;12791;50.992;13.788;2022-12-07T14:01:21;8.73;;;7.35;;
24663;SDS011;12791;50.992;13.788;2022-12-07T14:03:48;5.97;;;4.82;;
24663;SDS011;12791;50.992;13.788;2022-12-07T14:06:20;7.18;;;4.40;;
24663;SDS011;12791;50.992;13.788;2022-12-07T14:09:05;4.57;;;3.83;;
24663;SDS011;12791;50.992;13.788;2022-12-07T14:11:44;5.70;;;4.13;;
24663;SDS011;12791;50.992;13.788;2022-12-07T14:14:12;4.53;;;3.85;;
24663;SDS011;12791;50.992;13.788;2022-12-07T14:16:42;4.20;;;3.80;;
24663;SDS011;12791;50.992;13.788;2022-12-07T14:22:17;7.22;;;4.90;;
24663;SDS011;12791;50.992;13.788;2022-12-07T14:24:47;10.27;;;5.18;;
24663;SDS011;12791;50.992;13.788;2022-12-07T14:27:18;7.28;;;5.60;;
24663;SDS011;12791;50.992;13.788;2022-12-07T14:29:47;8.07;;;6.03;;
24663;SDS011;12791;50.992;13.788;2022-12-07T14:32:24;9.55;;;6.30;;
24663;SDS011;12791;50.992;13.788;2022-12-07T14:34:58;8.18;;;5.95;;
24663;SDS011;12791;50.992;13.788;2022-12-07T14:37:26;8.43;;;5.50;;
24663;SDS011;12791;50.992;13.788;2022-12-07T14:39:54;6.60;;;5.10;;
24663;SDS011;12791;50.992;13.788;2022-12-07T14:42:24;6.65;;;4.43;;
24663;SDS011;12791;50.992;13.788;2022-12-07T14:44:54;6.53;;;4.10;;
24663;SDS011;12791;50.992;13.788;2022-12-07T14:47:21;5.10;;;3.42;;
24663;SDS011;12791;50.992;13.788;2022-12-07T14:49:48;5.35;;;2.70;;
24663;SDS011;12791;50.992;13.788;2022-12-07T14:52:15;3.75;;;2.38;;
24663;SDS011;12791;50.992;13.788;2022-12-07T14:54:44;4.55;;;2.45;;
24663;SDS011;12791;50.992;13.788;2022-12-07T14:57:11;3.08;;;1.73;;
24663;SDS011;12791;50.992;13.788;2022-12-07T14:59:40;2.53;;;1.50;;
24663;SDS011;12791;50.992;13.788;2022-12-07T15:02:06;2.40;;;2.20;;
24663;SDS011;12791;50.992;13.788;2022-12-07T15:04:35;2.20;;;1.80;;
24663;SDS011;12791;50.992;13.788;2022-12-07T15:07:03;2.88;;;1.80;;
24663;SDS011;12791;50.992;13.788;2022-12-07T15:09:31;4.40;;;1.77;;
24663;SDS011;12791;50.992;13.788;2022-12-07T15:11:58;2.47;;;1.63;;
24663;SDS011;12791;50.992;13.788;2022-12-07T15:14:25;4.35;;;1.85;;
24663;SDS011;12791;50.992;13.788;2022-12-07T15:16:53;5.90;;;2.65;;
24663;SDS011;12791;50.992;13.788;2022-12-07T15:19:20;4.47;;;2.35;;
24663;SDS011;12791;50.992;13.788;2022-12-07T15:21:51;2.05;;;1.75;;
24663;SDS011;12791;50.992;13.788;2022-12-07T15:24:18;4.22;;;2.30;;
24663;SDS011;12791;50.992;13.788;2022-12-07T15:26:46;4.78;;;2.42;;
24663;SDS011;12791;50.992;13.788;2022-12-07T15:29:13;3.75;;;2.50;;
24663;SDS011;12791;50.992;13.788;2022-12-07T15:31:41;4.10;;;2.38;;
24663;SDS011;12791;50.992;13.788;2022-12-07T15:34:09;3.83;;;2.30;;
24663;SDS011;12791;50.992;13.788;2022-12-07T15:36:36;5.80;;;2.63;;
24663;SDS011;12791;50.992;13.788;2022-12-07T15:39:03;2.55;;;1.95;;
24663;SDS011;12791;50.992;13.788;2022-12-07T15:41:30;2.42;;;1.70;;
24663;SDS011;12791;50.992;13.788;2022-12-07T15:43:57;2.38;;;1.77;;
24663;SDS011;12791;50.992;13.788;2022-12-07T15:46:41;4.22;;;2.10;;
24663;SDS011;12791;50.992;13.788;2022-12-07T15:49:10;3.72;;;1.80;;
24663;SDS011;12791;50.992;13.788;2022-12-07T15:51:39;4.32;;;2.20;;
24663;SDS011;12791;50.992;13.788;2022-12-07T15:54:06;4.32;;;2.20;;
24663;SDS011;12791;50.992;13.788;2022-12-07T15:56:33;3.00;;;1.83;;
24663;SDS011;12791;50.992;13.788;2022-12-07T15:59:00;5.45;;;2.22;;
24663;SDS011;12791;50.992;13.788;2022-12-07T16:01:26;2.25;;;1.63;;
24663;SDS011;12791;50.992;13.788;2022-12-07T16:03:53;2.53;;;1.45;;
24663;SDS011;12791;50.992;13.788;2022-12-07T16:06:21;4.10;;;2.17;;
24663;SDS011;12791;50.992;13.788;2022-12-07T16:08:48;4.05;;;2.03;;
24663;SDS011;12791;50.992;13.788;2022-12-07T16:11:15;3.75;;;2.05;;
24663;SDS011;12791;50.992;13.788;2022-12-07T16:13:42;3.55;;;2.30;;
24663;SDS011;12791;50.992;13.788;2022-12-07T16:16:10;4.43;;;1.95;;
24663;SDS011;12791;50.992;13.788;2022-12-07T16:18:39;2.85;;;1.70;;
24663;SDS011;12791;50.992;13.788;2022-12-07T16:21:05;5.53;;;1.77;;
24663;SDS011;12791;50.992;13.788;2022-12-07T16:23:34;2.72;;;2.08;;
24663;SDS011;12791;50.992;13.788;2022-12-07T16:26:05;3.85;;;1.85;;
24663;SDS011;12791;50.992;13.788;2022-12-07T16:28:33;3.33;;;1.80;;
24663;SDS011;12791;50.992;13.788;2022-12-07T16:31:00;4.35;;;1.92;;
24663;SDS011;12791;50.992;13.788;2022-12-07T16:33:28;5.82;;;2.40;;
24663;SDS011;12791;50.992;13.788;2022-12-07T16:35:55;3.13;;;2.03;;
24663;SDS011;12791;50.992;13.788;2022-12-07T16:38:22;2.38;;;2.17;;
24663;SDS011;12791;50.992;13.788;2022-12-07T16:40:50;4.95;;;2.50;;
24663;SDS011;12791;50.992;13.788;2022-12-07T16:43:17;3.75;;;1.90;;
24663;SDS011;12791;50.992;13.788;2022-12-07T16:45:44;9.88;;;2.55;;
24663;SDS011;12791;50.992;13.788;2022-12-07T16:48:11;2.97;;;2.20;;
24663;SDS011;12791;50.992;13.788;2022-12-07T16:50:38;3.55;;;1.52;;
24663;SDS011;12791;50.992;13.788;2022-12-07T16:53:06;5.88;;;2.38;;
24663;SDS011;12791;50.992;13.788;2022-12-07T16:55:35;2.47;;;2.28;;
24663;SDS011;12791;50.992;13.788;2022-12-07T16:58:03;2.72;;;2.00;;
24663;SDS011;12791;50.992;13.788;2022-12-07T17:00:30;3.10;;;2.28;;
24663;SDS011;12791;50.992;13.788;2022-12-07T17:02:57;3.63;;;2.20;;
24663;SDS011;12791;50.992;13.788;2022-12-07T17:05:24;3.45;;;2.20;;
24663;SDS011;12791;50.992;13.788;2022-12-07T17:07:53;4.63;;;2.13;;
24663;SDS011;12791;50.992;13.788;2022-12-07T17:10:20;4.55;;;2.38;;
24663;SDS011;12791;50.992;13.788;2022-12-07T17:12:46;2.50;;;2.30;;
24663;SDS011;12791;50.992;13.788;2022-12-07T17:15:15;4.05;;;1.95;;
24663;SDS011;12791;50.992;13.788;2022-12-07T17:17:46;5.33;;;2.27;;
24663;SDS011;12791;50.992;13.788;2022-12-07T17:20:17;3.47;;;1.90;;
24663;SDS011;12791;50.992;13.788;2022-12-07T17:22:44;5.13;;;2.53;;
24663;SDS011;12791;50.992;13.788;2022-12-07T17:25:11;3.35;;;2.35;;
24663;SDS011;12791;50.992;13.788;2022-12-07T17:27:38;3.72;;;2.42;;
24663;SDS011;12791;50.992;13.788;2022-12-07T17:30:06;4.35;;;2.30;;
24663;SDS011;12791;50.992;13.788;2022-12-07T17:32:35;4.68;;;1.90;;
24663;SDS011;12791;50.992;13.788;2022-12-07T17:35:02;2.17;;;1.88;;
24663;SDS011;12791;50.992;13.788;2022-12-07T17:37:29;4.63;;;2.42;;
24663;SDS011;12791;50.992;13.788;2022-12-07T17:39:56;2.75;;;2.35;;
24663;SDS011;12791;50.992;13.788;2022-12-07T17:42:24;4.65;;;2.47;;
24663;SDS011;12791;50.992;13.788;2022-12-07T17:45:05;4.30;;;2.30;;
24663;SDS011;12791;50.992;13.788;2022-12-07T17:47:35;3.08;;;2.20;;
24663;SDS011;12791;50.992;13.788;2022-12-07T17:50:02;5.63;;;2.78;;
24663;SDS011;12791;50.992;13.788;2022-12-07T17:52:29;3.30;;;2.38;;
24663;SDS011;12791;50.992;13.788;2022-12-07T17:55:14;2.80;;;2.42;;
24663;SDS011;12791;50.992;13.788;2022-12-07T17:57:41;3.08;;;1.98;;
24663;SDS011;12791;50.992;13.788;2022-12-07T18:00:08;2.55;;;2.30;;
24663;SDS011;12791;50.992;13.788;2022-12-07T18:02:37;3.20;;;1.92;;
24663;SDS011;12791;50.992;13.788;2022-12-07T18:05:04;3.45;;;2.10;;
24663;SDS011;12791;50.992;13.788;2022-12-07T18:07:32;3.75;;;2.17;;
24663;SDS011;12791;50.992;13.788;2022-12-07T18:09:59;5.03;;;2.25;;
24663;SDS011;12791;50.992;13.788;2022-12-07T18:12:25;7.13;;;2.58;;
24663;SDS011;12791;50.992;13.788;2022-12-07T18:14:52;3.40;;;2.42;;
24663;SDS011;12791;50.992;13.788;2022-12-07T18:17:19;2.95;;;1.85;;
24663;SDS011;12791;50.992;13.788;2022-12-07T18:19:47;5.07;;;2.10;;
24663;SDS011;12791;50.992;13.788;2022-12-07T18:22:14;2.72;;;2.10;;
24663;SDS011;12791;50.992;13.788;2022-12-07T18:24:40;4.32;;;2.08;;
24663;SDS011;12791;50.992;13.788;2022-12-07T18:27:07;5.03;;;2.60;;
24663;SDS011;12791;50.992;13.788;2022-12-07T18:29:34;2.70;;;2.00;;
24663;SDS011;12791;50.992;13.788;2022-12-07T18:32:01;5.47;;;2.38;;
24663;SDS011;12791;50.992;13.788;2022-12-07T18:34:29;5.35;;;2.80;;
24663;SDS011;12791;50.992;13.788;2022-12-07T18:36:57;4.20;;;2.40;;
24663;SDS011;12791;50.992;13.788;2022-12-07T18:39:24;7.03;;;2.83;;
24663;SDS011;12791;50.992;13.788;2022-12-07T18:41:50;3.30;;;2.28;;
24663;SDS011;12791;50.992;13.788;2022-12-07T18:44:17;4.00;;;2.25;;
24663;SDS011;12791;50.992;13.788;2022-12-07T18:46:44;3.53;;;2.22;;
24663;SDS011;12791;50.992;13.788;2022-12-07T18:49:11;3.58;;;2.20;;
24663;SDS011;12791;50.992;13.788;2022-12-07T18:51:38;3.08;;;1.58;;
24663;SDS011;12791;50.992;13.788;2022-12-07T18:54:07;4.70;;;1.75;;
24663;SDS011;12791;50.992;13.788;2022-12-07T18:56:34;1.48;;;1.30;;
24663;SDS011;12791;50.992;13.788;2022-12-07T18:59:02;3.65;;;1.45;;
24663;SDS011;12791;50.992;13.788;2022-12-07T19:01:48;3.38;;;1.23;;
24663;SDS011;12791;50.992;13.788;2022-12-07T19:04:16;1.90;;;1.08;;
24663;SDS011;12791;50.992;13.788;2022-12-07T19:06:44;2.22;;;0.90;;
24663;SDS011;12791;50.992;13.788;2022-12-07T19:09:14;1.42;;;1.15;;
24663;SDS011;12791;50.992;13.788;2022-12-07T19:11:41;2.10;;;1.10;;
24663;SDS011;12791;50.992;13.788;2022-12-07T19:14:14;2.03;;;1.00;;
24663;SDS011;12791;50.992;13.788;2022-12-07T19:16:42;3.65;;;1.00;;
24663;SDS011;12791;50.992;13.788;2022-12-07T19:19:09;1.58;;;1.00;;